createdAt,value
2018-04-24T00:02:17.806Z,3.83
2018-04-24T00:04:45.322Z,3.70
2018-04-24T00:07:12.778Z,3.87
2018-04-24T00:09:40.238Z,3.63
2018-04-24T00:12:07.693Z,3.30
2018-04-24T00:14:35.117Z,4.60
2018-04-24T00:17:02.596Z,3.00
2018-04-24T00:19:30.059Z,3.50
2018-04-24T00:21:57.517Z,4.27
2018-04-24T00:24:24.977Z,3.50
2018-04-24T00:26:52.417Z,3.57
2018-04-24T00:29:19.873Z,4.70
2018-04-24T00:31:47.286Z,4.17
2018-04-24T00:34:14.760Z,3.53
2018-04-24T00:36:43.215Z,4.67
2018-04-24T00:39:12.188Z,4.43
2018-04-24T00:41:39.608Z,5.60
2018-04-24T00:44:07.021Z,4.37
2018-04-24T00:46:34.531Z,4.80
2018-04-24T00:49:01.963Z,3.70
2018-04-24T00:51:29.373Z,3.87
2018-04-24T00:53:56.897Z,4.20
2018-04-24T00:56:24.366Z,3.57
2018-04-24T00:58:52.016Z,4.87
2018-04-24T01:01:19.584Z,3.97
2018-04-24T01:03:47.021Z,5.43
2018-04-24T01:06:14.494Z,4.20
2018-04-24T01:08:41.934Z,5.27
2018-04-24T01:11:09.376Z,5.67
2018-04-24T01:13:36.856Z,4.10
2018-04-24T01:16:04.322Z,4.53
2018-04-24T01:18:31.754Z,4.03
2018-04-24T01:20:59.180Z,6.07
2018-04-24T01:23:26.693Z,7.33
2018-04-24T01:25:54.118Z,4.93
2018-04-24T01:28:21.549Z,3.80
2018-04-24T01:30:49.050Z,4.50
2018-04-24T01:33:16.485Z,7.60
2018-04-24T01:35:44.155Z,4.00
2018-04-24T01:38:12.530Z,4.20
2018-04-24T01:40:40.014Z,4.77
2018-04-24T01:43:07.451Z,3.87
2018-04-24T01:45:34.865Z,4.20
2018-04-24T01:48:03.069Z,4.03
2018-04-24T01:50:30.486Z,4.30
2018-04-24T01:52:57.994Z,4.53
2018-04-24T01:55:25.424Z,5.37
2018-04-24T01:57:52.839Z,5.23
2018-04-24T02:00:20.412Z,4.50
2018-04-24T02:02:49.353Z,5.37
2018-04-24T02:05:16.787Z,5.10
2018-04-24T02:07:44.299Z,6.47
2018-04-24T02:10:11.810Z,6.23
2018-04-24T02:12:39.237Z,8.77
2018-04-24T02:15:06.769Z,5.67
2018-04-24T02:17:34.206Z,5.07
2018-04-24T02:20:01.636Z,5.73
2018-04-24T02:22:29.214Z,5.80
2018-04-24T02:24:56.679Z,6.57
2018-04-24T02:27:24.101Z,5.67
2018-04-24T02:29:51.697Z,5.03
2018-04-24T02:32:19.128Z,7.00
2018-04-24T02:34:46.558Z,5.97
2018-04-24T02:37:13.995Z,6.70
2018-04-24T02:39:41.410Z,6.63
2018-04-24T02:42:08.851Z,5.93
2018-04-24T02:44:36.327Z,6.00
2018-04-24T02:47:03.754Z,8.20
2018-04-24T02:49:31.330Z,6.20
2018-04-24T02:51:58.757Z,6.20
2018-04-24T02:54:26.190Z,6.27
2018-04-24T02:56:53.607Z,5.47
2018-04-24T02:59:21.037Z,8.80
2018-04-24T03:01:48.462Z,7.07
2018-04-24T03:04:16.659Z,6.80
2018-04-24T03:06:44.091Z,8.27
2018-04-24T03:09:12.418Z,7.43
2018-04-24T03:11:39.894Z,6.47
2018-04-24T03:14:07.430Z,9.00
2018-04-24T03:16:34.858Z,8.37
2018-04-24T03:19:02.354Z,9.07
2018-04-24T03:21:29.782Z,6.20
2018-04-24T03:23:57.214Z,6.03
2018-04-24T03:26:24.718Z,7.93
2018-04-24T03:28:53.097Z,7.93
2018-04-24T03:31:20.549Z,7.50
2018-04-24T03:33:48.185Z,6.60
2018-04-24T03:36:15.619Z,6.57
2018-04-24T03:38:43.462Z,6.43
2018-04-24T03:41:10.926Z,11.57
2018-04-24T03:43:39.264Z,12.23
2018-04-24T03:46:06.709Z,7.57
2018-04-24T03:48:34.278Z,7.10
2018-04-24T03:51:01.742Z,8.77
2018-04-24T03:53:29.183Z,6.83
2018-04-24T03:55:56.654Z,6.60
2018-04-24T03:58:24.078Z,9.00
2018-04-24T04:00:51.562Z,7.63
2018-04-24T04:03:18.982Z,7.37
2018-04-24T04:05:46.426Z,7.60
2018-04-24T04:08:13.849Z,7.40
2018-04-24T04:10:41.285Z,8.57
2018-04-24T04:13:08.757Z,8.90
2018-04-24T04:15:36.308Z,7.20
2018-04-24T04:18:15.470Z,7.40
2018-04-24T04:20:54.762Z,7.70
2018-04-24T04:23:34.920Z,7.67
2018-04-24T04:26:02.342Z,7.10
2018-04-24T04:28:29.770Z,8.97
2018-04-24T04:30:57.189Z,10.30
2018-04-24T04:33:24.641Z,8.47
2018-04-24T04:35:52.118Z,7.93
2018-04-24T04:38:19.593Z,10.30
2018-04-24T04:40:47.121Z,8.67
2018-04-24T04:43:14.747Z,7.27
2018-04-24T04:45:42.198Z,10.93
2018-04-24T04:48:09.693Z,8.10
2018-04-24T04:50:37.137Z,9.20
2018-04-24T04:53:04.582Z,8.93
2018-04-24T04:55:32.073Z,11.63
2018-04-24T04:57:59.931Z,8.17
2018-04-24T05:00:27.577Z,8.67
2018-04-24T05:02:55.159Z,9.80
2018-04-24T05:05:22.707Z,10.10
2018-04-24T05:07:50.358Z,21.00
2018-04-24T05:10:17.813Z,18.80
2018-04-24T05:12:45.269Z,11.27
2018-04-24T05:15:13.034Z,10.40
2018-04-24T05:17:40.797Z,13.00
2018-04-24T05:20:08.502Z,8.40
2018-04-24T05:22:36.017Z,9.70
2018-04-24T05:25:03.433Z,9.10
2018-04-24T05:27:30.951Z,8.50
2018-04-24T05:29:58.562Z,8.87
2018-04-24T05:32:26.022Z,11.30
2018-04-24T05:34:53.602Z,8.40
2018-04-24T05:37:21.063Z,10.57
2018-04-24T05:39:48.640Z,10.23
2018-04-24T05:42:16.146Z,10.73
2018-04-24T05:44:43.633Z,9.30
2018-04-24T05:47:11.097Z,11.77
2018-04-24T05:49:38.650Z,10.40
2018-04-24T05:52:06.125Z,12.60
2018-04-24T05:54:33.537Z,13.60
2018-04-24T05:57:01.021Z,10.37
2018-04-24T05:59:28.646Z,11.20
2018-04-24T06:01:56.850Z,11.00
2018-04-24T06:04:24.310Z,10.60
2018-04-24T06:06:51.973Z,11.23
2018-04-24T06:09:19.461Z,10.80
2018-04-24T06:11:47.121Z,13.00
2018-04-24T06:14:14.539Z,10.80
2018-04-24T06:16:42.203Z,10.60
2018-04-24T06:19:09.643Z,9.80
2018-04-24T06:21:37.070Z,16.40
2018-04-24T06:24:04.599Z,9.63
2018-04-24T06:26:32.333Z,9.73
2018-04-24T06:28:59.766Z,10.30
2018-04-24T06:31:27.186Z,9.80
2018-04-24T06:33:54.642Z,11.47
2018-04-24T06:36:22.070Z,10.27
2018-04-24T06:38:49.609Z,11.67
2018-04-24T06:41:17.025Z,9.83
2018-04-24T06:43:44.466Z,10.10
2018-04-24T06:46:11.980Z,16.37
2018-04-24T06:48:39.433Z,14.03
2018-04-24T06:51:06.863Z,13.53
2018-04-24T06:53:34.289Z,15.17
2018-04-24T06:56:01.820Z,16.70
2018-04-24T06:58:29.601Z,11.53
2018-04-24T07:00:57.047Z,12.00
2018-04-24T07:03:24.448Z,11.03
2018-04-24T07:05:51.951Z,14.30
2018-04-24T07:08:19.397Z,12.10
2018-04-24T07:10:46.851Z,13.00
2018-04-24T07:13:14.256Z,10.40
2018-04-24T07:15:41.685Z,10.37
2018-04-24T07:18:09.128Z,10.33
2018-04-24T07:20:36.558Z,17.23
2018-04-24T07:23:04.140Z,10.60
2018-04-24T07:25:31.574Z,9.60
2018-04-24T07:27:59.050Z,10.93
2018-04-24T07:30:26.517Z,10.67
2018-04-24T07:32:54.142Z,10.47
2018-04-24T07:35:22.513Z,10.20
2018-04-24T07:37:49.995Z,7.73
2018-04-24T07:40:17.418Z,6.90
2018-04-24T07:42:45.606Z,13.07
2018-04-24T07:45:13.032Z,7.40
2018-04-24T07:47:40.454Z,9.30
2018-04-24T07:50:07.996Z,8.13
2018-04-24T07:52:35.444Z,7.80
2018-04-24T07:55:02.911Z,6.07
2018-04-24T07:57:30.326Z,5.03
2018-04-24T07:59:57.838Z,6.30
2018-04-24T08:02:25.274Z,9.10
2018-04-24T08:04:52.690Z,5.00
2018-04-24T08:07:21.014Z,4.47
2018-04-24T08:09:48.494Z,5.33
2018-04-24T08:12:16.032Z,5.10
2018-04-24T08:14:43.657Z,5.50
2018-04-24T08:17:11.248Z,4.33
2018-04-24T08:19:38.661Z,4.40
2018-04-24T08:22:06.188Z,3.80
2018-04-24T08:24:33.587Z,5.93
2018-04-24T08:27:01.010Z,4.47
2018-04-24T08:29:28.421Z,4.90
2018-04-24T08:31:55.892Z,8.17
2018-04-24T08:34:23.445Z,4.20
2018-04-24T08:36:50.862Z,4.13
2018-04-24T08:39:18.346Z,6.30
2018-04-24T08:41:45.769Z,4.17
2018-04-24T08:44:14.396Z,4.63
2018-04-24T08:46:41.857Z,4.10
2018-04-24T08:49:09.310Z,3.83
2018-04-24T08:51:36.763Z,3.63
2018-04-24T08:54:04.186Z,5.50
2018-04-24T08:56:31.706Z,4.73
2018-04-24T08:58:59.137Z,5.20
2018-04-24T09:01:26.594Z,3.73
2018-04-24T09:03:54.086Z,5.00
2018-04-24T09:06:21.596Z,4.90
2018-04-24T09:08:49.052Z,3.33
2018-04-24T09:11:16.473Z,4.13
2018-04-24T09:13:43.899Z,4.23
2018-04-24T09:16:11.344Z,5.00
2018-04-24T09:18:38.885Z,4.97
2018-04-24T09:21:06.338Z,5.27
2018-04-24T09:23:33.773Z,4.30
2018-04-24T09:26:01.186Z,6.17
2018-04-24T09:28:28.701Z,5.97
2018-04-24T09:30:56.189Z,4.90
2018-04-24T09:33:25.232Z,6.07
2018-04-24T09:35:52.577Z,4.73
2018-04-24T09:38:20.007Z,3.90
2018-04-24T09:40:47.421Z,4.93
2018-04-24T09:43:14.987Z,4.60
2018-04-24T09:45:42.431Z,6.80
2018-04-24T09:48:09.869Z,5.00
2018-04-24T09:50:37.294Z,4.83
2018-04-24T09:53:04.802Z,5.13
2018-04-24T09:55:32.233Z,5.10
2018-04-24T09:57:59.731Z,4.07
2018-04-24T10:00:33.165Z,5.50
2018-04-24T10:03:01.385Z,5.03
2018-04-24T10:05:28.839Z,4.80
2018-04-24T10:07:56.249Z,5.53
2018-04-24T10:10:23.753Z,4.50
2018-04-24T10:12:51.187Z,5.07
2018-04-24T10:15:18.666Z,6.53
2018-04-24T10:17:46.123Z,4.60
2018-04-24T10:20:13.584Z,4.60
2018-04-24T10:22:41.033Z,3.93
2018-04-24T10:25:08.449Z,4.17
2018-04-24T10:27:35.945Z,3.93
2018-04-24T10:30:03.352Z,4.20
2018-04-24T10:32:30.781Z,3.73
2018-04-24T10:34:58.234Z,4.60
2018-04-24T10:37:25.854Z,4.20
2018-04-24T10:39:53.230Z,3.30
2018-04-24T10:42:20.681Z,3.80
2018-04-24T10:44:48.176Z,5.40
2018-04-24T10:47:15.517Z,4.07
2018-04-24T10:49:43.044Z,7.00
2018-04-24T10:52:10.468Z,3.90
2018-04-24T10:54:37.882Z,3.77
2018-04-24T10:57:05.299Z,4.23
2018-04-24T10:59:32.782Z,3.20
2018-04-24T11:02:00.350Z,3.90
2018-04-24T11:04:27.791Z,3.30
2018-04-24T11:06:55.196Z,3.40
2018-04-24T11:09:22.621Z,3.70
2018-04-24T11:11:50.076Z,5.60
2018-04-24T11:14:17.518Z,4.77
2018-04-24T11:16:45.087Z,3.90
2018-04-24T11:19:12.510Z,3.47
2018-04-24T11:21:39.933Z,4.10
2018-04-24T11:24:07.441Z,9.03
2018-04-24T11:26:34.894Z,2.90
2018-04-24T11:29:02.348Z,3.10
2018-04-24T11:31:29.809Z,3.40
2018-04-24T11:33:57.266Z,3.70
2018-04-24T11:36:24.693Z,3.73
2018-04-24T11:38:52.182Z,4.77
2018-04-24T11:41:19.712Z,6.20
2018-04-24T11:43:47.294Z,3.30
2018-04-24T11:46:15.455Z,3.00
2018-04-24T11:48:42.923Z,5.70
2018-04-24T11:51:10.379Z,4.03
2018-04-24T11:53:37.790Z,2.90
2018-04-24T11:56:05.294Z,4.43
2018-04-24T11:58:32.702Z,3.90
2018-04-24T12:01:00.126Z,4.50
2018-04-24T12:03:27.662Z,3.80
2018-04-24T12:05:55.114Z,3.97
2018-04-24T12:08:22.521Z,4.70
2018-04-24T12:10:49.938Z,6.80
2018-04-24T12:13:17.356Z,3.37
2018-04-24T12:15:44.987Z,3.40
2018-04-24T12:18:12.369Z,3.20
2018-04-24T12:20:39.836Z,4.17
2018-04-24T12:23:07.314Z,3.97
2018-04-24T12:25:34.762Z,2.83
2018-04-24T12:28:02.222Z,5.13
2018-04-24T12:30:29.692Z,3.07
2018-04-24T12:32:57.152Z,4.40
2018-04-24T12:35:24.622Z,2.97
2018-04-24T12:37:52.044Z,3.23
2018-04-24T12:40:19.464Z,2.63
2018-04-24T12:42:46.877Z,3.00
2018-04-24T12:45:14.326Z,4.30
2018-04-24T12:47:41.869Z,3.33
2018-04-24T12:50:09.282Z,2.83
2018-04-24T12:52:36.711Z,3.03
2018-04-24T12:55:04.119Z,2.57
2018-04-24T12:57:31.698Z,2.90
2018-04-24T12:59:59.178Z,2.73
2018-04-24T13:02:26.610Z,3.73
2018-04-24T13:04:54.057Z,2.90
2018-04-24T13:07:21.518Z,2.73
2018-04-24T13:09:49.025Z,2.60
2018-04-24T13:12:16.429Z,2.70
2018-04-24T13:14:43.857Z,2.43
2018-04-24T13:17:11.342Z,2.63
2018-04-24T13:19:38.778Z,2.47
2018-04-24T13:22:06.194Z,3.20
2018-04-24T13:24:33.726Z,3.43
2018-04-24T13:27:01.492Z,2.80
2018-04-24T13:29:28.932Z,5.43
2018-04-24T13:31:56.345Z,2.70
2018-04-24T13:34:23.770Z,2.57
2018-04-24T13:36:51.198Z,3.10
2018-04-24T13:39:18.615Z,3.40
2018-04-24T13:41:46.909Z,3.17
2018-04-24T13:44:14.488Z,2.40
2018-04-24T13:46:41.961Z,2.60
2018-04-24T13:49:09.414Z,4.90
2018-04-24T13:51:36.841Z,2.50
2018-04-24T13:54:04.321Z,2.40
2018-04-24T13:56:31.818Z,3.33
2018-04-24T13:58:59.240Z,3.37
2018-04-24T14:01:26.667Z,2.73
2018-04-24T14:03:54.246Z,4.17
2018-04-24T14:06:21.718Z,4.17
2018-04-24T14:08:49.085Z,3.37
2018-04-24T14:11:16.614Z,3.57
2018-04-24T14:13:44.030Z,2.97
2018-04-24T14:16:11.472Z,2.57
2018-04-24T14:18:38.883Z,3.10
2018-04-24T14:21:06.442Z,2.43
2018-04-24T14:23:33.870Z,2.93
2018-04-24T14:26:01.274Z,2.67
2018-04-24T14:28:28.709Z,3.43
2018-04-24T14:30:56.294Z,4.87
2018-04-24T14:33:23.869Z,3.93
2018-04-24T14:35:51.402Z,5.20
2018-04-24T14:38:18.845Z,2.83
2018-04-24T14:40:46.373Z,2.57
2018-04-24T14:43:13.796Z,3.43
2018-04-24T14:45:41.229Z,3.33
2018-04-24T14:48:08.768Z,4.50
2018-04-24T14:50:36.177Z,3.27
2018-04-24T14:53:03.613Z,3.43
2018-04-24T14:55:31.025Z,4.37
2018-04-24T14:57:58.609Z,2.73
2018-04-24T15:00:26.343Z,2.80
2018-04-24T15:02:53.753Z,3.13
2018-04-24T15:05:21.177Z,2.63
2018-04-24T15:07:48.591Z,2.57
2018-04-24T15:10:16.018Z,2.93
2018-04-24T15:12:43.627Z,2.60
2018-04-24T15:15:11.101Z,2.70
2018-04-24T15:17:38.710Z,3.20
2018-04-24T15:20:06.942Z,4.07
2018-04-24T15:22:34.541Z,3.70
2018-04-24T15:25:02.733Z,3.87
2018-04-24T15:27:30.203Z,2.93
2018-04-24T15:29:57.641Z,2.70
2018-04-24T15:32:25.058Z,2.70
2018-04-24T15:34:52.604Z,2.87
2018-04-24T15:37:19.966Z,3.20
2018-04-24T15:39:47.493Z,2.77
2018-04-24T15:42:14.929Z,2.60
2018-04-24T15:44:42.350Z,2.90
2018-04-24T15:47:09.965Z,3.30
2018-04-24T15:49:37.497Z,2.37
2018-04-24T15:52:04.989Z,2.93
2018-04-24T15:54:32.436Z,3.10
2018-04-24T15:56:59.985Z,2.93
2018-04-24T15:59:27.414Z,3.77
2018-04-24T16:01:54.842Z,2.63
2018-04-24T16:04:22.274Z,2.23
2018-04-24T16:06:49.775Z,2.10
2018-04-24T16:09:17.910Z,2.87
2018-04-24T16:11:45.654Z,3.13
2018-04-24T16:14:13.062Z,2.90
2018-04-24T16:16:40.540Z,3.30
2018-04-24T16:19:08.013Z,3.90
2018-04-24T16:21:35.431Z,2.93
2018-04-24T16:24:02.927Z,3.00
2018-04-24T16:26:30.358Z,3.10
2018-04-24T16:28:57.765Z,3.77
2018-04-24T16:31:25.186Z,4.27
2018-04-24T16:33:53.603Z,2.60
2018-04-24T16:36:21.045Z,5.10
2018-04-24T16:38:48.490Z,3.40
2018-04-24T16:41:15.912Z,2.67
2018-04-24T16:43:43.369Z,4.77
2018-04-24T16:46:10.885Z,4.23
2018-04-24T16:48:38.321Z,3.73
2018-04-24T16:51:05.856Z,3.33
2018-04-24T16:53:33.281Z,3.17
2018-04-24T16:56:00.778Z,7.53
2018-04-24T16:58:28.230Z,2.50
2018-04-24T17:00:55.675Z,3.30
2018-04-24T17:03:23.098Z,3.00
2018-04-24T17:05:50.510Z,2.70
2018-04-24T17:08:17.951Z,2.63
2018-04-24T17:10:45.363Z,3.20
2018-04-24T17:13:12.778Z,3.30
2018-04-24T17:15:40.312Z,3.20
2018-04-24T17:18:07.754Z,7.10
2018-04-24T17:20:35.197Z,8.63
2018-04-24T17:23:03.589Z,3.87
2018-04-24T17:25:31.151Z,4.27
2018-04-24T17:27:58.630Z,2.83
2018-04-24T17:30:26.052Z,4.23
2018-04-24T17:32:53.457Z,3.13
2018-04-24T17:35:20.879Z,3.83
2018-04-24T17:37:48.329Z,3.53
2018-04-24T17:40:15.766Z,3.33
2018-04-24T17:42:43.992Z,5.17
2018-04-24T17:45:11.468Z,3.70
2018-04-24T17:47:38.895Z,4.47
2018-04-24T17:50:06.323Z,3.57
2018-04-24T17:52:33.737Z,3.80
2018-04-24T17:55:01.263Z,4.73
2018-04-24T17:57:28.672Z,3.80
2018-04-24T17:59:56.186Z,3.17
2018-04-24T18:02:23.978Z,3.00
2018-04-24T18:04:52.892Z,4.03
2018-04-24T18:07:20.333Z,3.43
2018-04-24T18:09:47.754Z,3.70
2018-04-24T18:12:15.299Z,3.47
2018-04-24T18:14:42.714Z,4.67
2018-04-24T18:17:10.138Z,3.00
2018-04-24T18:19:37.573Z,3.77
2018-04-24T18:22:05.002Z,4.47
2018-04-24T18:24:33.187Z,3.50
2018-04-24T18:27:00.654Z,3.70
2018-04-24T18:29:28.074Z,5.87
2018-04-24T18:31:55.602Z,3.40
2018-04-24T18:34:23.338Z,5.03
2018-04-24T18:36:50.770Z,7.03
2018-04-24T18:39:19.034Z,3.67
2018-04-24T18:41:46.622Z,3.30
2018-04-24T18:44:14.056Z,9.03
2018-04-24T18:46:41.461Z,3.63
2018-04-24T18:49:08.890Z,4.70
2018-04-24T18:51:36.452Z,5.77
2018-04-24T18:54:04.074Z,3.40
2018-04-24T18:56:31.662Z,3.40
2018-04-24T18:58:59.090Z,4.80
2018-04-24T19:01:26.509Z,5.83
2018-04-24T19:03:53.934Z,4.07
2018-04-24T19:06:21.345Z,4.10
2018-04-24T19:08:49.543Z,2.90
2018-04-24T19:11:16.950Z,3.93
2018-04-24T19:13:44.368Z,3.80
2018-04-24T19:16:11.796Z,6.27
2018-04-24T19:18:44.777Z,4.23
2018-04-24T19:21:12.220Z,4.57
2018-04-24T19:23:40.468Z,7.83
2018-04-24T19:26:07.826Z,6.67
2018-04-24T19:28:35.251Z,11.10
2018-04-24T19:31:08.245Z,7.80
2018-04-24T19:33:35.673Z,7.93
2018-04-24T19:36:03.101Z,6.77
2018-04-24T19:38:31.277Z,5.20
2018-04-24T19:41:05.081Z,6.23
2018-04-24T19:43:32.466Z,6.20
2018-04-24T19:46:00.038Z,5.50
2018-04-24T19:48:33.137Z,4.93
2018-04-24T19:51:00.557Z,6.70
2018-04-24T19:53:27.969Z,5.77
2018-04-24T19:55:55.378Z,6.17
2018-04-24T19:58:22.818Z,5.30
2018-04-24T20:00:50.229Z,5.70
2018-04-24T20:03:17.641Z,4.40
2018-04-24T20:05:45.063Z,4.23
2018-04-24T20:08:12.499Z,5.77
2018-04-24T20:10:39.982Z,6.17
2018-04-24T20:13:07.362Z,4.40
2018-04-24T20:15:34.782Z,8.20
2018-04-24T20:18:02.201Z,4.33
2018-04-24T20:20:29.625Z,4.50
2018-04-24T20:22:57.042Z,4.20
2018-04-24T20:25:24.474Z,3.77
2018-04-24T20:27:51.899Z,4.43
2018-04-24T20:30:19.326Z,4.37
2018-04-24T20:32:46.743Z,4.63
2018-04-24T20:35:14.166Z,4.20
2018-04-24T20:37:41.592Z,3.53
2018-04-24T20:40:09.086Z,5.03
2018-04-24T20:42:36.512Z,4.10
2018-04-24T20:45:03.938Z,4.37
2018-04-24T20:47:32.312Z,4.13
2018-04-24T20:49:59.837Z,4.50
2018-04-24T20:52:27.249Z,4.40
2018-04-24T20:54:54.764Z,4.67
2018-04-24T20:57:22.189Z,3.43
2018-04-24T20:59:49.658Z,4.83
2018-04-24T21:02:17.074Z,4.53
2018-04-24T21:04:44.579Z,5.60
2018-04-24T21:07:13.577Z,4.40
2018-04-24T21:09:41.330Z,4.17
2018-04-24T21:12:08.770Z,3.83
2018-04-24T21:14:36.177Z,4.80
2018-04-24T21:17:03.698Z,3.83
2018-04-24T21:19:31.216Z,4.60
2018-04-24T21:21:58.608Z,5.03
2018-04-24T21:24:26.069Z,6.30
2018-04-24T21:26:53.486Z,4.43
2018-04-24T21:29:20.984Z,4.23
2018-04-24T21:31:48.442Z,4.53
2018-04-24T21:34:15.858Z,4.63
2018-04-24T21:36:43.291Z,6.60
2018-04-24T21:39:10.701Z,3.53
2018-04-24T21:41:38.160Z,4.27
2018-04-24T21:44:05.573Z,4.40
2018-04-24T21:46:33.763Z,3.93
2018-04-24T21:49:01.246Z,4.17
2018-04-24T21:51:28.723Z,4.87
2018-04-24T21:53:56.105Z,5.50
2018-04-24T21:56:23.624Z,4.60
2018-04-24T21:58:51.075Z,5.13
2018-04-24T22:01:18.523Z,4.50
2018-04-24T22:03:45.977Z,5.53
2018-04-24T22:06:13.438Z,5.53
2018-04-24T22:08:40.890Z,7.33
2018-04-24T22:11:08.366Z,5.83
2018-04-24T22:13:35.787Z,5.63
2018-04-24T22:16:03.202Z,5.40
2018-04-24T22:18:30.730Z,5.60
2018-04-24T22:20:58.152Z,5.30
2018-04-24T22:23:25.630Z,6.07
2018-04-24T22:25:53.087Z,5.13
2018-04-24T22:28:20.513Z,5.20
2018-04-24T22:30:47.926Z,5.37
2018-04-24T22:33:15.385Z,7.13
2018-04-24T22:35:42.910Z,5.20
2018-04-24T22:38:10.329Z,5.10
2018-04-24T22:40:37.829Z,4.37
2018-04-24T22:43:05.188Z,5.20
2018-04-24T22:45:32.734Z,4.97
2018-04-24T22:48:00.144Z,5.30
2018-04-24T22:50:27.648Z,8.20
2018-04-24T22:52:55.058Z,6.10
2018-04-24T22:55:22.486Z,5.67
2018-04-24T22:57:49.914Z,7.13
2018-04-24T23:00:17.483Z,5.57
2018-04-24T23:02:44.929Z,6.13
2018-04-24T23:05:12.353Z,4.60
2018-04-24T23:07:39.866Z,6.80
2018-04-24T23:10:06.990Z,5.57
2018-04-24T23:12:46.125Z,6.13
2018-04-24T23:15:25.561Z,4.83
2018-04-24T23:18:04.971Z,5.40
2018-04-24T23:20:32.145Z,5.50
2018-04-24T23:22:59.587Z,5.67
2018-04-24T23:25:27.063Z,8.80
2018-04-24T23:27:54.491Z,4.30
2018-04-24T23:30:21.929Z,4.70
2018-04-24T23:32:49.349Z,6.20
2018-04-24T23:35:16.887Z,5.37
2018-04-24T23:37:44.314Z,5.77
2018-04-24T23:40:11.729Z,6.23
2018-04-24T23:42:39.273Z,5.13
2018-04-24T23:45:06.689Z,6.00
2018-04-24T23:47:34.177Z,5.10
2018-04-24T23:50:01.586Z,4.83
2018-04-24T23:52:29.006Z,9.07
2018-04-24T23:54:56.735Z,6.40
2018-04-24T23:57:24.293Z,6.70
2018-04-24T23:59:51.705Z,5.17
